sensor_id;sensor_type;location;lat;lon;timestamp;P1;durP1;ratioP1;P2;durP2;ratioP2
60098;SDS011;62818;49.394;8.686;2023-04-08T00:00:54;6.53;;;5.93;;
60098;SDS011;62818;49.394;8.686;2023-04-08T00:01:54;6.97;;;5.90;;
60098;SDS011;62818;49.394;8.686;2023-04-08T00:02:55;6.70;;;6.10;;
60098;SDS011;62818;49.394;8.686;2023-04-08T00:03:55;6.43;;;5.87;;
60098;SDS011;62818;49.394;8.686;2023-04-08T00:04:56;8.07;;;6.37;;
60098;SDS011;62818;49.394;8.686;2023-04-08T00:05:56;7.30;;;6.60;;
60098;SDS011;62818;49.394;8.686;2023-04-08T00:06:57;8.10;;;6.55;;
60098;SDS011;62818;49.394;8.686;2023-04-08T00:07:57;7.53;;;6.73;;
60098;SDS011;62818;49.394;8.686;2023-04-08T00:08:58;7.67;;;6.33;;
60098;SDS011;62818;49.394;8.686;2023-04-08T00:09:58;7.37;;;6.67;;
60098;SDS011;62818;49.394;8.686;2023-04-08T00:10:59;7.70;;;7.00;;
60098;SDS011;62818;49.394;8.686;2023-04-08T00:11:59;8.57;;;7.37;;
60098;SDS011;62818;49.394;8.686;2023-04-08T00:13:00;8.03;;;7.23;;
60098;SDS011;62818;49.394;8.686;2023-04-08T00:14:01;8.27;;;6.87;;
60098;SDS011;62818;49.394;8.686;2023-04-08T00:15:03;7.22;;;6.53;;
60098;SDS011;62818;49.394;8.686;2023-04-08T00:16:04;8.90;;;8.00;;
60098;SDS011;62818;49.394;8.686;2023-04-08T00:17:05;8.83;;;7.93;;
60098;SDS011;62818;49.394;8.686;2023-04-08T00:18:06;8.27;;;7.20;;
60098;SDS011;62818;49.394;8.686;2023-04-08T00:19:07;8.52;;;7.65;;
60098;SDS011;62818;49.394;8.686;2023-04-08T00:20:07;8.47;;;7.67;;
60098;SDS011;62818;49.394;8.686;2023-04-08T00:21:08;8.07;;;6.85;;
60098;SDS011;62818;49.394;8.686;2023-04-08T00:22:09;7.90;;;7.20;;
60098;SDS011;62818;49.394;8.686;2023-04-08T00:23:10;10.40;;;7.13;;
60098;SDS011;62818;49.394;8.686;2023-04-08T00:24:11;8.00;;;6.93;;
60098;SDS011;62818;49.394;8.686;2023-04-08T00:25:11;9.07;;;7.07;;
60098;SDS011;62818;49.394;8.686;2023-04-08T00:26:12;8.37;;;7.57;;
60098;SDS011;62818;49.394;8.686;2023-04-08T00:27:12;11.93;;;8.00;;
60098;SDS011;62818;49.394;8.686;2023-04-08T00:28:13;7.93;;;7.13;;
60098;SDS011;62818;49.394;8.686;2023-04-08T00:29:13;7.87;;;7.13;;
60098;SDS011;62818;49.394;8.686;2023-04-08T00:30:14;7.90;;;7.10;;
60098;SDS011;62818;49.394;8.686;2023-04-08T00:31:15;7.80;;;7.05;;
60098;SDS011;62818;49.394;8.686;2023-04-08T00:32:15;9.07;;;8.23;;
60098;SDS011;62818;49.394;8.686;2023-04-08T00:33:16;7.87;;;7.07;;
60098;SDS011;62818;49.394;8.686;2023-04-08T00:34:16;8.07;;;7.23;;
60098;SDS011;62818;49.394;8.686;2023-04-08T00:35:17;8.13;;;7.33;;
60098;SDS011;62818;49.394;8.686;2023-04-08T00:36:17;8.50;;;7.70;;
60098;SDS011;62818;49.394;8.686;2023-04-08T00:37:18;7.90;;;7.20;;
60098;SDS011;62818;49.394;8.686;2023-04-08T00:38:18;7.73;;;6.93;;
60098;SDS011;62818;49.394;8.686;2023-04-08T00:39:19;7.97;;;7.17;;
60098;SDS011;62818;49.394;8.686;2023-04-08T00:40:19;7.73;;;6.97;;
60098;SDS011;62818;49.394;8.686;2023-04-08T00:41:20;7.97;;;7.17;;
60098;SDS011;62818;49.394;8.686;2023-04-08T00:42:21;9.53;;;7.50;;
60098;SDS011;62818;49.394;8.686;2023-04-08T00:43:21;9.27;;;6.80;;
60098;SDS011;62818;49.394;8.686;2023-04-08T00:44:22;8.67;;;7.37;;
60098;SDS011;62818;49.394;8.686;2023-04-08T00:45:22;8.27;;;7.17;;
60098;SDS011;62818;49.394;8.686;2023-04-08T00:46:23;7.53;;;6.83;;
60098;SDS011;62818;49.394;8.686;2023-04-08T00:47:23;9.73;;;7.17;;
60098;SDS011;62818;49.394;8.686;2023-04-08T00:48:24;7.72;;;7.03;;
60098;SDS011;62818;49.394;8.686;2023-04-08T00:49:25;8.47;;;7.63;;
60098;SDS011;62818;49.394;8.686;2023-04-08T00:50:26;7.43;;;6.63;;
60098;SDS011;62818;49.394;8.686;2023-04-08T00:51:27;9.30;;;6.70;;
60098;SDS011;62818;49.394;8.686;2023-04-08T00:52:30;6.75;;;6.15;;
60098;SDS011;62818;49.394;8.686;2023-04-08T00:53:30;7.63;;;6.93;;
60098;SDS011;62818;49.394;8.686;2023-04-08T00:54:31;7.45;;;6.75;;
60098;SDS011;62818;49.394;8.686;2023-04-08T00:55:32;7.18;;;6.55;;
60098;SDS011;62818;49.394;8.686;2023-04-08T00:56:32;7.07;;;6.40;;
60098;SDS011;62818;49.394;8.686;2023-04-08T00:57:34;7.03;;;6.40;;
60098;SDS011;62818;49.394;8.686;2023-04-08T00:58:35;7.03;;;6.33;;
60098;SDS011;62818;49.394;8.686;2023-04-08T00:59:38;7.45;;;6.75;;
60098;SDS011;62818;49.394;8.686;2023-04-08T01:00:41;6.65;;;6.05;;
60098;SDS011;62818;49.394;8.686;2023-04-08T01:02:56;9.50;;;7.00;;
60098;SDS011;62818;49.394;8.686;2023-04-08T01:04:28;8.65;;;6.65;;
60098;SDS011;62818;49.394;8.686;2023-04-08T01:05:59;9.05;;;7.32;;
60098;SDS011;62818;49.394;8.686;2023-04-08T01:07:12;7.95;;;6.93;;
60098;SDS011;62818;49.394;8.686;2023-04-08T01:08:19;7.80;;;6.80;;
60098;SDS011;62818;49.394;8.686;2023-04-08T01:09:24;8.10;;;6.88;;
60098;SDS011;62818;49.394;8.686;2023-04-08T01:10:32;8.18;;;6.68;;
60098;SDS011;62818;49.394;8.686;2023-04-08T01:11:37;7.78;;;7.07;;
60098;SDS011;62818;49.394;8.686;2023-04-08T01:12:47;7.68;;;6.88;;
60098;SDS011;62818;49.394;8.686;2023-04-08T01:13:54;7.80;;;7.00;;
60098;SDS011;62818;49.394;8.686;2023-04-08T01:15:04;7.10;;;6.50;;
60098;SDS011;62818;49.394;8.686;2023-04-08T01:16:08;7.70;;;6.85;;
60098;SDS011;62818;49.394;8.686;2023-04-08T01:17:11;9.70;;;7.43;;
60098;SDS011;62818;49.394;8.686;2023-04-08T01:18:12;9.03;;;7.73;;
60098;SDS011;62818;49.394;8.686;2023-04-08T01:19:36;7.43;;;6.72;;
60098;SDS011;62818;49.394;8.686;2023-04-08T01:20:41;8.02;;;7.22;;
60098;SDS011;62818;49.394;8.686;2023-04-08T01:21:43;7.32;;;6.57;;
60098;SDS011;62818;49.394;8.686;2023-04-08T01:23:00;9.73;;;7.00;;
60098;SDS011;62818;49.394;8.686;2023-04-08T01:24:11;10.13;;;7.40;;
60098;SDS011;62818;49.394;8.686;2023-04-08T01:25:25;8.30;;;7.55;;
60098;SDS011;62818;49.394;8.686;2023-04-08T01:26:31;9.25;;;7.10;;
60098;SDS011;62818;49.394;8.686;2023-04-08T01:27:32;8.43;;;7.47;;
60098;SDS011;62818;49.394;8.686;2023-04-08T01:28:34;8.98;;;7.15;;
60098;SDS011;62818;49.394;8.686;2023-04-08T01:29:38;8.55;;;6.88;;
60098;SDS011;62818;49.394;8.686;2023-04-08T01:30:41;10.57;;;7.20;;
60098;SDS011;62818;49.394;8.686;2023-04-08T01:31:45;8.23;;;7.13;;
60098;SDS011;62818;49.394;8.686;2023-04-08T01:32:47;7.80;;;7.10;;
60098;SDS011;62818;49.394;8.686;2023-04-08T01:33:51;7.70;;;7.00;;
60098;SDS011;62818;49.394;8.686;2023-04-08T01:34:53;7.60;;;6.90;;
60098;SDS011;62818;49.394;8.686;2023-04-08T01:35:57;7.72;;;7.03;;
60098;SDS011;62818;49.394;8.686;2023-04-08T01:37:00;7.93;;;6.78;;
60098;SDS011;62818;49.394;8.686;2023-04-08T01:38:04;8.90;;;6.90;;
60098;SDS011;62818;49.394;8.686;2023-04-08T01:39:08;8.57;;;7.55;;
60098;SDS011;62818;49.394;8.686;2023-04-08T01:40:10;8.10;;;6.90;;
60098;SDS011;62818;49.394;8.686;2023-04-08T01:41:11;7.10;;;6.43;;
60098;SDS011;62818;49.394;8.686;2023-04-08T01:42:12;7.07;;;6.37;;
60098;SDS011;62818;49.394;8.686;2023-04-08T01:43:15;7.32;;;6.65;;
60098;SDS011;62818;49.394;8.686;2023-04-08T01:44:17;7.28;;;6.57;;
60098;SDS011;62818;49.394;8.686;2023-04-08T01:45:21;11.48;;;6.97;;
60098;SDS011;62818;49.394;8.686;2023-04-08T01:47:25;7.30;;;6.60;;
60098;SDS011;62818;49.394;8.686;2023-04-08T01:48:27;7.53;;;6.70;;
60098;SDS011;62818;49.394;8.686;2023-04-08T01:49:30;7.45;;;6.75;;
60098;SDS011;62818;49.394;8.686;2023-04-08T01:51:33;7.72;;;6.90;;
60098;SDS011;62818;49.394;8.686;2023-04-08T01:52:36;7.07;;;6.47;;
60098;SDS011;62818;49.394;8.686;2023-04-08T01:53:40;8.68;;;7.05;;
60098;SDS011;62818;49.394;8.686;2023-04-08T01:54:43;8.88;;;7.47;;
60098;SDS011;62818;49.394;8.686;2023-04-08T01:55:43;7.90;;;7.10;;
60098;SDS011;62818;49.394;8.686;2023-04-08T01:56:45;7.85;;;7.10;;
60098;SDS011;62818;49.394;8.686;2023-04-08T01:57:48;7.50;;;6.70;;
60098;SDS011;62818;49.394;8.686;2023-04-08T01:58:51;8.65;;;7.65;;
60098;SDS011;62818;49.394;8.686;2023-04-08T01:59:59;8.00;;;7.15;;
60098;SDS011;62818;49.394;8.686;2023-04-08T02:01:05;7.78;;;7.07;;
60098;SDS011;62818;49.394;8.686;2023-04-08T02:02:12;11.38;;;7.35;;
60098;SDS011;62818;49.394;8.686;2023-04-08T02:03:16;10.73;;;7.57;;
60098;SDS011;62818;49.394;8.686;2023-04-08T02:04:19;7.47;;;6.78;;
60098;SDS011;62818;49.394;8.686;2023-04-08T02:05:20;9.43;;;7.00;;
60098;SDS011;62818;49.394;8.686;2023-04-08T02:06:20;7.97;;;7.17;;
60098;SDS011;62818;49.394;8.686;2023-04-08T02:07:21;8.20;;;7.40;;
60098;SDS011;62818;49.394;8.686;2023-04-08T02:08:22;7.63;;;6.93;;
60098;SDS011;62818;49.394;8.686;2023-04-08T02:09:23;7.53;;;6.83;;
60098;SDS011;62818;49.394;8.686;2023-04-08T02:10:24;9.85;;;7.28;;
60098;SDS011;62818;49.394;8.686;2023-04-08T02:11:24;7.93;;;7.13;;
60098;SDS011;62818;49.394;8.686;2023-04-08T02:12:25;8.07;;;7.30;;
60098;SDS011;62818;49.394;8.686;2023-04-08T02:13:28;7.80;;;7.10;;
60098;SDS011;62818;49.394;8.686;2023-04-08T02:14:30;7.50;;;6.80;;
60098;SDS011;62818;49.394;8.686;2023-04-08T02:15:33;7.63;;;6.93;;
60098;SDS011;62818;49.394;8.686;2023-04-08T02:16:42;7.47;;;6.78;;
60098;SDS011;62818;49.394;8.686;2023-04-08T02:17:59;7.40;;;6.55;;
60098;SDS011;62818;49.394;8.686;2023-04-08T02:19:27;7.22;;;6.60;;
60098;SDS011;62818;49.394;8.686;2023-04-08T02:20:36;6.85;;;6.25;;
60098;SDS011;62818;49.394;8.686;2023-04-08T02:21:43;7.68;;;6.88;;
60098;SDS011;62818;49.394;8.686;2023-04-08T02:22:59;7.60;;;6.88;;
60098;SDS011;62818;49.394;8.686;2023-04-08T02:24:15;9.00;;;6.93;;
60098;SDS011;62818;49.394;8.686;2023-04-08T02:25:20;7.85;;;6.65;;
60098;SDS011;62818;49.394;8.686;2023-04-08T02:26:24;7.25;;;6.55;;
60098;SDS011;62818;49.394;8.686;2023-04-08T02:27:26;8.65;;;6.45;;
60098;SDS011;62818;49.394;8.686;2023-04-08T02:28:30;8.20;;;6.90;;
60098;SDS011;62818;49.394;8.686;2023-04-08T02:29:34;7.72;;;6.75;;
60098;SDS011;62818;49.394;8.686;2023-04-08T02:30:40;7.43;;;6.72;;
60098;SDS011;62818;49.394;8.686;2023-04-08T02:31:43;7.22;;;6.55;;
60098;SDS011;62818;49.394;8.686;2023-04-08T02:32:48;6.63;;;6.03;;
60098;SDS011;62818;49.394;8.686;2023-04-08T02:33:50;8.45;;;7.10;;
60098;SDS011;62818;49.394;8.686;2023-04-08T02:34:52;7.32;;;6.63;;
60098;SDS011;62818;49.394;8.686;2023-04-08T02:35:55;7.88;;;7.07;;
60098;SDS011;62818;49.394;8.686;2023-04-08T02:36:56;7.68;;;6.80;;
60098;SDS011;62818;49.394;8.686;2023-04-08T02:37:58;7.75;;;6.78;;
60098;SDS011;62818;49.394;8.686;2023-04-08T02:38:58;6.87;;;6.27;;
60098;SDS011;62818;49.394;8.686;2023-04-08T02:39:59;7.50;;;6.80;;
60098;SDS011;62818;49.394;8.686;2023-04-08T02:40:59;7.80;;;7.10;;
60098;SDS011;62818;49.394;8.686;2023-04-08T02:42:00;7.40;;;6.50;;
60098;SDS011;62818;49.394;8.686;2023-04-08T02:43:01;7.10;;;6.50;;
60098;SDS011;62818;49.394;8.686;2023-04-08T02:44:01;6.77;;;6.03;;
60098;SDS011;62818;49.394;8.686;2023-04-08T02:45:02;6.93;;;6.33;;
60098;SDS011;62818;49.394;8.686;2023-04-08T02:46:03;7.60;;;6.25;;
60098;SDS011;62818;49.394;8.686;2023-04-08T02:47:03;8.07;;;6.97;;
60098;SDS011;62818;49.394;8.686;2023-04-08T02:48:04;7.40;;;6.70;;
60098;SDS011;62818;49.394;8.686;2023-04-08T02:49:05;7.78;;;6.93;;
60098;SDS011;62818;49.394;8.686;2023-04-08T02:50:05;8.07;;;7.30;;
60098;SDS011;62818;49.394;8.686;2023-04-08T02:51:06;7.93;;;7.18;;
60098;SDS011;62818;49.394;8.686;2023-04-08T02:52:07;8.07;;;7.27;;
60098;SDS011;62818;49.394;8.686;2023-04-08T02:53:07;7.30;;;6.60;;
60098;SDS011;62818;49.394;8.686;2023-04-08T02:54:08;7.63;;;6.82;;
60098;SDS011;62818;49.394;8.686;2023-04-08T02:55:09;9.43;;;7.10;;
60098;SDS011;62818;49.394;8.686;2023-04-08T02:56:10;7.53;;;6.72;;
60098;SDS011;62818;49.394;8.686;2023-04-08T02:57:11;8.80;;;6.80;;
60098;SDS011;62818;49.394;8.686;2023-04-08T02:58:12;6.87;;;6.27;;
60098;SDS011;62818;49.394;8.686;2023-04-08T02:59:12;8.37;;;7.47;;
60098;SDS011;62818;49.394;8.686;2023-04-08T03:00:13;7.77;;;7.07;;
60098;SDS011;62818;49.394;8.686;2023-04-08T03:01:15;8.10;;;6.63;;
60098;SDS011;62818;49.394;8.686;2023-04-08T03:02:16;7.60;;;6.80;;
60098;SDS011;62818;49.394;8.686;2023-04-08T03:03:17;8.53;;;6.50;;
60098;SDS011;62818;49.394;8.686;2023-04-08T03:04:17;10.27;;;7.10;;
60098;SDS011;62818;49.394;8.686;2023-04-08T03:05:18;8.63;;;7.23;;
60098;SDS011;62818;49.394;8.686;2023-04-08T03:06:18;7.67;;;6.97;;
60098;SDS011;62818;49.394;8.686;2023-04-08T03:07:19;9.20;;;7.10;;
60098;SDS011;62818;49.394;8.686;2023-04-08T03:08:19;7.97;;;7.17;;
60098;SDS011;62818;49.394;8.686;2023-04-08T03:09:20;7.60;;;6.85;;
60098;SDS011;62818;49.394;8.686;2023-04-08T03:10:21;7.97;;;7.07;;
60098;SDS011;62818;49.394;8.686;2023-04-08T03:11:21;9.53;;;6.40;;
60098;SDS011;62818;49.394;8.686;2023-04-08T03:12:22;8.00;;;7.20;;
60098;SDS011;62818;49.394;8.686;2023-04-08T03:13:22;8.27;;;7.47;;
60098;SDS011;62818;49.394;8.686;2023-04-08T03:14:23;8.37;;;7.53;;
60098;SDS011;62818;49.394;8.686;2023-04-08T03:15:23;7.40;;;6.70;;
60098;SDS011;62818;49.394;8.686;2023-04-08T03:16:24;7.70;;;6.90;;
60098;SDS011;62818;49.394;8.686;2023-04-08T03:17:24;11.07;;;6.77;;
60098;SDS011;62818;49.394;8.686;2023-04-08T03:18:25;9.67;;;6.97;;
60098;SDS011;62818;49.394;8.686;2023-04-08T03:19:25;7.57;;;6.87;;
60098;SDS011;62818;49.394;8.686;2023-04-08T03:20:26;7.80;;;7.10;;
60098;SDS011;62818;49.394;8.686;2023-04-08T03:21:26;8.10;;;6.93;;
60098;SDS011;62818;49.394;8.686;2023-04-08T03:22:27;9.47;;;7.50;;
60098;SDS011;62818;49.394;8.686;2023-04-08T03:23:27;8.73;;;7.60;;
60098;SDS011;62818;49.394;8.686;2023-04-08T03:24:28;7.57;;;6.87;;
60098;SDS011;62818;49.394;8.686;2023-04-08T03:25:28;10.30;;;7.80;;
60098;SDS011;62818;49.394;8.686;2023-04-08T03:27:30;7.78;;;7.00;;
60098;SDS011;62818;49.394;8.686;2023-04-08T03:28:31;7.90;;;7.10;;
60098;SDS011;62818;49.394;8.686;2023-04-08T03:29:31;8.17;;;7.37;;
60098;SDS011;62818;49.394;8.686;2023-04-08T03:30:32;8.00;;;7.30;;
60098;SDS011;62818;49.394;8.686;2023-04-08T03:31:32;7.73;;;7.03;;
60098;SDS011;62818;49.394;8.686;2023-04-08T03:32:33;11.37;;;7.30;;
60098;SDS011;62818;49.394;8.686;2023-04-08T03:33:33;7.53;;;6.70;;
60098;SDS011;62818;49.394;8.686;2023-04-08T03:34:34;9.20;;;7.15;;
60098;SDS011;62818;49.394;8.686;2023-04-08T03:35:35;8.37;;;7.50;;
60098;SDS011;62818;49.394;8.686;2023-04-08T03:36:37;7.80;;;7.10;;
60098;SDS011;62818;49.394;8.686;2023-04-08T03:37:38;8.23;;;7.33;;
60098;SDS011;62818;49.394;8.686;2023-04-08T03:38:38;8.10;;;7.30;;
60098;SDS011;62818;49.394;8.686;2023-04-08T03:39:39;8.43;;;7.63;;
60098;SDS011;62818;49.394;8.686;2023-04-08T03:40:39;7.90;;;7.10;;
60098;SDS011;62818;49.394;8.686;2023-04-08T03:41:39;9.13;;;7.27;;
60098;SDS011;62818;49.394;8.686;2023-04-08T03:42:40;8.73;;;7.37;;
60098;SDS011;62818;49.394;8.686;2023-04-08T03:43:41;8.87;;;7.77;;
60098;SDS011;62818;49.394;8.686;2023-04-08T03:44:41;9.60;;;7.77;;
60098;SDS011;62818;49.394;8.686;2023-04-08T03:45:42;8.57;;;7.33;;
60098;SDS011;62818;49.394;8.686;2023-04-08T03:46:42;8.33;;;7.53;;
60098;SDS011;62818;49.394;8.686;2023-04-08T03:47:43;8.23;;;7.43;;
60098;SDS011;62818;49.394;8.686;2023-04-08T03:48:43;8.03;;;7.27;;
60098;SDS011;62818;49.394;8.686;2023-04-08T03:49:44;8.87;;;7.17;;
60098;SDS011;62818;49.394;8.686;2023-04-08T03:50:44;10.50;;;7.97;;
60098;SDS011;62818;49.394;8.686;2023-04-08T03:51:45;7.47;;;6.67;;
60098;SDS011;62818;49.394;8.686;2023-04-08T03:52:45;8.63;;;7.57;;
60098;SDS011;62818;49.394;8.686;2023-04-08T03:53:46;12.13;;;7.47;;
60098;SDS011;62818;49.394;8.686;2023-04-08T03:54:48;8.98;;;7.55;;
60098;SDS011;62818;49.394;8.686;2023-04-08T03:55:48;8.97;;;8.10;;
60098;SDS011;62818;49.394;8.686;2023-04-08T03:56:52;8.30;;;7.43;;
60098;SDS011;62818;49.394;8.686;2023-04-08T03:57:52;7.93;;;7.23;;
60098;SDS011;62818;49.394;8.686;2023-04-08T03:58:53;9.17;;;8.10;;
60098;SDS011;62818;49.394;8.686;2023-04-08T03:59:53;7.97;;;7.27;;
60098;SDS011;62818;49.394;8.686;2023-04-08T04:00:54;8.73;;;7.87;;
60098;SDS011;62818;49.394;8.686;2023-04-08T04:01:54;8.87;;;7.97;;
60098;SDS011;62818;49.394;8.686;2023-04-08T04:02:55;8.32;;;7.53;;
60098;SDS011;62818;49.394;8.686;2023-04-08T04:03:55;9.13;;;8.23;;
60098;SDS011;62818;49.394;8.686;2023-04-08T04:04:56;7.97;;;7.17;;
60098;SDS011;62818;49.394;8.686;2023-04-08T04:05:56;8.83;;;7.93;;
60098;SDS011;62818;49.394;8.686;2023-04-08T04:06:57;8.83;;;8.00;;
60098;SDS011;62818;49.394;8.686;2023-04-08T04:07:57;9.47;;;7.57;;
60098;SDS011;62818;49.394;8.686;2023-04-08T04:08:58;10.07;;;8.17;;
60098;SDS011;62818;49.394;8.686;2023-04-08T04:09:58;8.40;;;7.60;;
60098;SDS011;62818;49.394;8.686;2023-04-08T04:10:59;8.80;;;7.90;;
60098;SDS011;62818;49.394;8.686;2023-04-08T04:11:59;8.67;;;7.80;;
60098;SDS011;62818;49.394;8.686;2023-04-08T04:13:00;8.55;;;7.75;;
60098;SDS011;62818;49.394;8.686;2023-04-08T04:14:01;8.93;;;8.03;;
60098;SDS011;62818;49.394;8.686;2023-04-08T04:15:02;8.30;;;7.57;;
60098;SDS011;62818;49.394;8.686;2023-04-08T04:16:03;8.38;;;7.38;;
60098;SDS011;62818;49.394;8.686;2023-04-08T04:17:04;8.73;;;7.82;;
60098;SDS011;62818;49.394;8.686;2023-04-08T04:18:04;9.20;;;7.90;;
60098;SDS011;62818;49.394;8.686;2023-04-08T04:19:05;8.60;;;7.80;;
60098;SDS011;62818;49.394;8.686;2023-04-08T04:20:06;8.50;;;7.70;;
60098;SDS011;62818;49.394;8.686;2023-04-08T04:21:07;10.85;;;7.53;;
60098;SDS011;62818;49.394;8.686;2023-04-08T04:22:08;8.97;;;8.07;;
60098;SDS011;62818;49.394;8.686;2023-04-08T04:23:09;8.45;;;7.60;;
60098;SDS011;62818;49.394;8.686;2023-04-08T04:24:10;8.27;;;7.18;;
60098;SDS011;62818;49.394;8.686;2023-04-08T04:25:10;8.87;;;8.00;;
60098;SDS011;62818;49.394;8.686;2023-04-08T04:26:11;8.93;;;7.80;;
60098;SDS011;62818;49.394;8.686;2023-04-08T04:27:11;10.83;;;7.60;;
60098;SDS011;62818;49.394;8.686;2023-04-08T04:28:12;8.90;;;8.00;;
60098;SDS011;62818;49.394;8.686;2023-04-08T04:29:12;8.37;;;7.57;;
60098;SDS011;62818;49.394;8.686;2023-04-08T04:30:13;8.37;;;7.00;;
60098;SDS011;62818;49.394;8.686;2023-04-08T04:31:18;8.75;;;7.25;;
60098;SDS011;62818;49.394;8.686;2023-04-08T04:32:26;8.40;;;7.68;;
60098;SDS011;62818;49.394;8.686;2023-04-08T04:33:27;9.03;;;7.40;;
60098;SDS011;62818;49.394;8.686;2023-04-08T04:34:27;8.47;;;7.53;;
60098;SDS011;62818;49.394;8.686;2023-04-08T04:35:28;7.93;;;7.23;;
60098;SDS011;62818;49.394;8.686;2023-04-08T04:36:28;7.57;;;6.77;;
60098;SDS011;62818;49.394;8.686;2023-04-08T04:37:28;8.10;;;7.40;;
60098;SDS011;62818;49.394;8.686;2023-04-08T04:38:29;9.10;;;7.43;;
60098;SDS011;62818;49.394;8.686;2023-04-08T04:39:30;8.57;;;7.83;;
60098;SDS011;62818;49.394;8.686;2023-04-08T04:40:30;7.40;;;6.70;;
60098;SDS011;62818;49.394;8.686;2023-04-08T04:41:31;8.70;;;7.80;;
60098;SDS011;62818;49.394;8.686;2023-04-08T04:42:31;7.63;;;6.93;;
60098;SDS011;62818;49.394;8.686;2023-04-08T04:43:32;9.13;;;7.57;;
60098;SDS011;62818;49.394;8.686;2023-04-08T04:44:32;7.73;;;6.93;;
60098;SDS011;62818;49.394;8.686;2023-04-08T04:45:33;8.60;;;7.80;;
60098;SDS011;62818;49.394;8.686;2023-04-08T04:46:33;9.50;;;7.40;;
60098;SDS011;62818;49.394;8.686;2023-04-08T04:47:34;7.80;;;7.00;;
60098;SDS011;62818;49.394;8.686;2023-04-08T04:48:35;8.13;;;7.30;;
60098;SDS011;62818;49.394;8.686;2023-04-08T04:49:35;8.07;;;7.27;;
60098;SDS011;62818;49.394;8.686;2023-04-08T04:50:35;8.83;;;7.60;;
60098;SDS011;62818;49.394;8.686;2023-04-08T04:51:36;8.20;;;7.50;;
60098;SDS011;62818;49.394;8.686;2023-04-08T04:52:36;7.70;;;6.93;;
60098;SDS011;62818;49.394;8.686;2023-04-08T04:53:37;8.03;;;7.23;;
60098;SDS011;62818;49.394;8.686;2023-04-08T04:54:37;7.63;;;6.93;;
60098;SDS011;62818;49.394;8.686;2023-04-08T04:55:38;8.23;;;7.27;;
60098;SDS011;62818;49.394;8.686;2023-04-08T04:56:38;7.47;;;6.77;;
60098;SDS011;62818;49.394;8.686;2023-04-08T04:57:39;8.25;;;7.45;;
60098;SDS011;62818;49.394;8.686;2023-04-08T04:58:40;7.97;;;7.00;;
60098;SDS011;62818;49.394;8.686;2023-04-08T04:59:41;7.95;;;6.95;;
60098;SDS011;62818;49.394;8.686;2023-04-08T05:00:41;11.13;;;7.83;;
60098;SDS011;62818;49.394;8.686;2023-04-08T05:01:42;8.03;;;7.10;;
60098;SDS011;62818;49.394;8.686;2023-04-08T05:02:42;8.07;;;7.27;;
60098;SDS011;62818;49.394;8.686;2023-04-08T05:03:43;7.97;;;7.07;;
60098;SDS011;62818;49.394;8.686;2023-04-08T05:04:43;8.00;;;7.20;;
60098;SDS011;62818;49.394;8.686;2023-04-08T05:05:43;7.57;;;6.87;;
60098;SDS011;62818;49.394;8.686;2023-04-08T05:06:44;8.00;;;7.10;;
60098;SDS011;62818;49.394;8.686;2023-04-08T05:07:45;7.83;;;7.10;;
60098;SDS011;62818;49.394;8.686;2023-04-08T05:08:45;8.47;;;7.57;;
60098;SDS011;62818;49.394;8.686;2023-04-08T05:09:45;8.73;;;7.63;;
60098;SDS011;62818;49.394;8.686;2023-04-08T05:10:46;8.10;;;7.40;;
60098;SDS011;62818;49.394;8.686;2023-04-08T05:11:49;8.70;;;7.80;;
60098;SDS011;62818;49.394;8.686;2023-04-08T05:12:49;9.47;;;7.30;;
60098;SDS011;62818;49.394;8.686;2023-04-08T05:13:50;8.37;;;7.27;;
60098;SDS011;62818;49.394;8.686;2023-04-08T05:14:50;10.67;;;7.20;;
60098;SDS011;62818;49.394;8.686;2023-04-08T05:15:50;8.27;;;7.47;;
60098;SDS011;62818;49.394;8.686;2023-04-08T05:16:51;8.07;;;7.37;;
60098;SDS011;62818;49.394;8.686;2023-04-08T05:17:51;7.90;;;7.10;;
60098;SDS011;62818;49.394;8.686;2023-04-08T05:18:52;8.10;;;7.30;;
60098;SDS011;62818;49.394;8.686;2023-04-08T05:19:52;7.90;;;7.10;;
60098;SDS011;62818;49.394;8.686;2023-04-08T05:20:53;7.90;;;7.17;;
60098;SDS011;62818;49.394;8.686;2023-04-08T05:21:53;8.33;;;7.53;;
60098;SDS011;62818;49.394;8.686;2023-04-08T05:22:54;8.43;;;7.23;;
60098;SDS011;62818;49.394;8.686;2023-04-08T05:23:54;9.43;;;7.57;;
60098;SDS011;62818;49.394;8.686;2023-04-08T05:24:55;8.37;;;7.50;;
60098;SDS011;62818;49.394;8.686;2023-04-08T05:25:55;8.90;;;8.00;;
60098;SDS011;62818;49.394;8.686;2023-04-08T05:26:56;8.20;;;7.43;;
60098;SDS011;62818;49.394;8.686;2023-04-08T05:27:56;8.30;;;7.50;;
60098;SDS011;62818;49.394;8.686;2023-04-08T05:28:57;9.37;;;7.97;;
60098;SDS011;62818;49.394;8.686;2023-04-08T05:29:57;8.67;;;7.87;;
60098;SDS011;62818;49.394;8.686;2023-04-08T05:30:58;8.93;;;8.03;;
60098;SDS011;62818;49.394;8.686;2023-04-08T05:31:58;11.10;;;8.53;;
60098;SDS011;62818;49.394;8.686;2023-04-08T05:32:59;9.23;;;8.33;;
60098;SDS011;62818;49.394;8.686;2023-04-08T05:34:00;9.23;;;8.27;;
60098;SDS011;62818;49.394;8.686;2023-04-08T05:35:03;11.30;;;8.00;;
60098;SDS011;62818;49.394;8.686;2023-04-08T05:36:04;10.07;;;8.43;;
60098;SDS011;62818;49.394;8.686;2023-04-08T05:37:05;8.53;;;7.73;;
60098;SDS011;62818;49.394;8.686;2023-04-08T05:38:06;8.43;;;7.63;;
60098;SDS011;62818;49.394;8.686;2023-04-08T05:39:06;10.73;;;8.30;;
60098;SDS011;62818;49.394;8.686;2023-04-08T05:40:07;9.03;;;8.13;;
60098;SDS011;62818;49.394;8.686;2023-04-08T05:41:08;8.45;;;7.75;;
60098;SDS011;62818;49.394;8.686;2023-04-08T05:42:08;11.30;;;7.77;;
60098;SDS011;62818;49.394;8.686;2023-04-08T05:43:10;8.88;;;7.93;;
60098;SDS011;62818;49.394;8.686;2023-04-08T05:44:10;8.20;;;7.47;;
60098;SDS011;62818;49.394;8.686;2023-04-08T05:45:12;9.18;;;8.38;;
60098;SDS011;62818;49.394;8.686;2023-04-08T05:46:13;10.10;;;9.07;;
60098;SDS011;62818;49.394;8.686;2023-04-08T05:47:13;9.27;;;8.37;;
60098;SDS011;62818;49.394;8.686;2023-04-08T05:48:14;8.87;;;8.10;;
60098;SDS011;62818;49.394;8.686;2023-04-08T05:49:14;8.53;;;7.77;;
60098;SDS011;62818;49.394;8.686;2023-04-08T05:50:16;9.10;;;8.20;;
60098;SDS011;62818;49.394;8.686;2023-04-08T05:51:16;9.70;;;8.80;;
60098;SDS011;62818;49.394;8.686;2023-04-08T05:52:17;11.20;;;9.10;;
60098;SDS011;62818;49.394;8.686;2023-04-08T05:53:18;10.10;;;9.00;;
60098;SDS011;62818;49.394;8.686;2023-04-08T05:54:18;9.90;;;8.90;;
60098;SDS011;62818;49.394;8.686;2023-04-08T05:55:18;9.80;;;8.87;;
60098;SDS011;62818;49.394;8.686;2023-04-08T05:56:19;10.73;;;9.67;;
60098;SDS011;62818;49.394;8.686;2023-04-08T05:57:20;10.17;;;9.27;;
60098;SDS011;62818;49.394;8.686;2023-04-08T05:58:20;9.30;;;8.30;;
60098;SDS011;62818;49.394;8.686;2023-04-08T05:59:21;10.03;;;9.03;;
60098;SDS011;62818;49.394;8.686;2023-04-08T06:00:21;10.50;;;9.50;;
60098;SDS011;62818;49.394;8.686;2023-04-08T06:01:22;9.33;;;8.43;;
60098;SDS011;62818;49.394;8.686;2023-04-08T06:02:23;9.80;;;8.77;;
60098;SDS011;62818;49.394;8.686;2023-04-08T06:03:23;9.50;;;8.60;;
60098;SDS011;62818;49.394;8.686;2023-04-08T06:04:24;9.77;;;8.80;;
60098;SDS011;62818;49.394;8.686;2023-04-08T06:05:24;9.97;;;8.70;;
60098;SDS011;62818;49.394;8.686;2023-04-08T06:06:25;10.23;;;8.80;;
60098;SDS011;62818;49.394;8.686;2023-04-08T06:07:25;10.47;;;9.47;;
60098;SDS011;62818;49.394;8.686;2023-04-08T06:08:26;9.27;;;8.30;;
60098;SDS011;62818;49.394;8.686;2023-04-08T06:09:27;9.87;;;8.97;;
60098;SDS011;62818;49.394;8.686;2023-04-08T06:10:27;10.60;;;9.60;;
60098;SDS011;62818;49.394;8.686;2023-04-08T06:11:28;11.17;;;9.17;;
60098;SDS011;62818;49.394;8.686;2023-04-08T06:12:28;9.97;;;9.00;;
60098;SDS011;62818;49.394;8.686;2023-04-08T06:13:29;10.03;;;9.13;;
60098;SDS011;62818;49.394;8.686;2023-04-08T06:14:29;9.57;;;8.57;;
60098;SDS011;62818;49.394;8.686;2023-04-08T06:15:30;9.53;;;8.63;;
60098;SDS011;62818;49.394;8.686;2023-04-08T06:16:31;10.35;;;9.35;;